Time;durP1;ratioP1;P1;durP2;ratioP2;P2;SDS_P1;SDS_P2;PMS_P1;PMS_P2;Temp;Humidity;BMP_temperature;BMP_pressure;BME280_temperature;BME280_humidity;BME280_pressure;Samples;Min_cycle;Max_cycle;Signal;HPM_P1;HPM_P2
2022/03/20 00:02:10;;;;;;;18.43;12.80;;;9.90;46.90;;;-142.21;57.13;112049.66;4973733;28;20865;-76
2022/03/20 06:24:48;;;;;;;17.87;12.33;;;10.10;44.80;;;-142.21;54.59;112049.66;4953156;28;20493;-75
2022/03/20 06:27:28;;;;;;;20.20;13.33;;;10.10;44.60;;;-142.21;55.67;112049.66;4955631;29;20455;-76
2022/03/20 06:29:56;;;;;;;18.80;13.10;;;10.10;44.90;;;-142.21;55.46;112049.66;4955091;29;20476;-78
2022/03/20 06:32:24;;;;;;;17.33;12.87;;;10.20;44.20;;;-142.21;54.39;112049.66;4955504;28;20929;-78
2022/03/20 06:34:52;;;;;;;17.97;12.87;;;10.20;44.30;;;-142.21;54.40;112049.66;4955292;28;20790;-78
2022/03/20 06:37:19;;;;;;;17.70;13.27;;;10.30;44.40;;;-142.21;54.49;112049.66;4955673;28;20540;-79
2022/03/20 06:39:48;;;;;;;18.43;13.10;;;10.30;44.00;;;-142.21;55.42;112049.66;4955247;28;20862;-80
2022/03/20 06:42:19;;;;;;;17.07;12.47;;;10.30;43.80;;;-142.21;53.12;112049.66;4953678;28;20472;-78
2022/03/20 06:44:46;;;;;;;18.47;13.23;;;10.20;44.00;;;-142.21;51.96;112049.66;4953784;28;20480;-81
2022/03/20 06:47:14;;;;;;;19.17;13.40;;;10.20;43.80;;;-142.21;53.59;112049.66;4955335;28;20467;-78
2022/03/20 06:49:45;;;;;;;16.60;12.90;;;10.20;44.00;;;-142.21;51.50;112049.66;4954002;28;20457;-77
2022/03/20 06:52:12;;;;;;;20.37;13.33;;;10.30;44.00;;;-142.21;53.92;112049.66;4953807;28;20885;-77
2022/03/20 06:54:43;;;;;;;18.20;13.43;;;10.30;44.00;;;-142.21;52.83;112049.66;4955061;28;20946;-77
2022/03/20 06:57:12;;;;;;;16.77;13.07;;;10.30;44.10;;;-142.21;51.51;112049.66;4954171;29;20425;-78
2022/03/20 06:59:39;;;;;;;18.40;13.23;;;10.30;44.00;;;-142.21;52.43;112049.66;4954907;28;20701;-78
2022/03/20 07:02:07;;;;;;;16.80;13.27;;;10.50;44.10;;;-142.21;51.84;112049.66;4953097;28;20508;-77
2022/03/20 07:04:34;;;;;;;17.57;13.37;;;10.60;43.90;;;-142.21;52.96;112049.66;4955060;28;20848;-79
2022/03/20 07:07:02;;;;;;;18.27;13.00;;;10.70;43.70;;;-142.21;52.92;112049.66;4953886;28;20993;-79
2022/03/20 07:09:29;;;;;;;16.23;13.30;;;10.70;43.60;;;-142.21;53.31;112049.66;4954902;28;20543;-77
2022/03/20 07:11:57;;;;;;;19.10;14.30;;;10.70;44.10;;;-142.21;52.96;112049.66;4954943;28;20461;-78
2022/03/20 07:14:26;;;;;;;16.13;12.57;;;10.70;43.80;;;-142.21;51.63;112049.66;4954649;28;20517;-78
2022/03/20 07:16:55;;;;;;;19.27;13.73;;;10.70;43.90;;;-142.21;52.44;112049.66;4955132;28;20453;-78
2022/03/20 07:19:22;;;;;;;18.80;14.00;;;10.80;44.70;;;-142.21;55.81;112049.66;4954444;28;20871;-79
2022/03/20 07:21:50;;;;;;;17.53;13.73;;;10.90;44.00;;;-142.21;53.02;112049.66;4955298;28;20468;-76
2022/03/20 07:24:19;;;;;;;19.90;13.60;;;10.90;44.00;;;-142.21;54.13;112049.66;4954310;28;20493;-80
2022/03/20 07:29:35;;;;;;;18.97;13.20;;;11.00;43.90;;;-142.21;52.09;112049.66;4954107;29;20448;-77
2022/03/20 07:32:06;;;;;;;18.10;13.60;;;11.00;44.30;;;-142.21;53.02;112049.66;4954675;28;20460;-78
2022/03/20 07:34:34;;;;;;;17.40;13.60;;;11.00;44.20;;;-142.21;53.73;112049.66;4958274;29;20476;-78
2022/03/20 07:37:01;;;;;;;17.70;13.43;;;11.20;44.50;;;-142.21;53.39;112049.66;4958684;28;20437;-79
2022/03/20 07:39:29;;;;;;;17.53;13.10;;;11.40;44.70;;;-142.21;54.38;112049.66;4958118;28;20456;-78
2022/03/20 07:41:57;;;;;;;17.60;13.37;;;11.60;44.40;;;-142.21;54.12;112049.66;4958211;28;20468;-77
2022/03/20 07:44:25;;;;;;;18.40;14.13;;;11.70;43.90;;;-142.21;54.42;112049.66;4957344;28;20496;-77
2022/03/20 07:46:57;;;;;;;19.20;14.27;;;11.90;44.30;;;-142.21;58.25;112049.66;4958883;28;20508;-77
2022/03/20 07:49:26;;;;;;;17.60;14.00;;;12.10;44.40;;;-142.21;54.97;112049.66;4958347;29;20445;-76
2022/03/20 07:51:55;;;;;;;19.40;13.90;;;12.30;43.70;;;-142.21;54.27;112049.66;4958155;28;20551;-77
2022/03/20 07:54:22;;;;;;;19.27;13.97;;;12.40;43.50;;;-142.21;53.87;112049.66;4957988;28;20449;-77
2022/03/20 07:56:49;;;;;;;19.10;14.13;;;12.50;43.30;;;-142.21;54.62;112049.66;4957389;28;20441;-77
2022/03/20 07:59:17;;;;;;;19.77;14.33;;;12.60;43.70;;;-142.21;54.98;112049.66;4957808;28;20452;-76
2022/03/20 08:01:45;;;;;;;17.53;13.70;;;12.60;43.90;;;-142.21;53.18;112049.66;4957481;28;20457;-76
2022/03/20 08:04:16;;;;;;;17.10;13.13;;;12.60;43.00;;;-142.21;54.52;112049.66;4957973;28;20510;-77
2022/03/20 08:06:44;;;;;;;18.00;13.50;;;12.60;43.40;;;-142.21;53.91;112049.66;4957133;29;20460;-77
2022/03/20 08:09:12;;;;;;;18.20;14.27;;;12.60;43.10;;;-142.21;54.50;112049.66;4957754;28;20441;-75
2022/03/20 08:11:39;;;;;;;20.83;14.80;;;12.60;43.70;;;-142.21;54.01;112049.66;4956983;28;20507;-78
2022/03/20 08:14:08;;;;;;;21.30;14.70;;;12.70;43.50;;;-142.21;54.99;112049.66;4957712;28;20453;-77
2022/03/20 08:16:39;;;;;;;20.93;15.40;;;12.70;44.20;;;-142.21;55.63;112049.66;4971925;28;20467;-78
2022/03/20 08:19:09;;;;;;;18.50;13.43;;;12.70;43.90;;;-142.21;57.06;112049.66;4958091;29;20463;-79
2022/03/20 08:21:39;;;;;;;19.70;14.37;;;12.80;44.30;;;-142.21;56.36;112049.66;4955602;28;20468;-78
2022/03/20 08:24:07;;;;;;;19.50;15.40;;;12.80;43.90;;;-142.21;57.22;112049.66;4955547;28;21031;-77
2022/03/20 08:26:35;;;;;;;21.30;14.80;;;12.80;44.20;;;-142.21;57.95;112049.66;4956575;29;20460;-79
2022/03/20 08:29:03;;;;;;;21.40;15.03;;;12.80;44.20;;;-142.21;58.58;112049.66;4953581;28;20458;-76
2022/03/20 08:31:33;;;;;;;19.50;14.73;;;12.70;44.60;;;-142.21;58.36;112049.66;4945618;29;20457;-78
2022/03/20 08:34:02;;;;;;;18.47;13.93;;;12.70;44.50;;;-142.21;58.61;112049.66;4956292;29;20509;-78
2022/03/20 08:36:29;;;;;;;21.17;15.47;;;12.70;44.80;;;-142.21;58.77;112049.66;4956026;28;20460;-78
2022/03/20 08:38:58;;;;;;;20.40;14.67;;;12.70;45.20;;;-142.21;60.43;112049.66;4957191;28;20607;-77
2022/03/20 08:41:27;;;;;;;18.80;14.50;;;12.80;45.30;;;-142.21;61.80;112049.66;4956413;28;20457;-78
2022/03/20 08:43:57;;;;;;;18.30;14.83;;;12.80;45.20;;;-142.21;60.18;112049.66;4955501;28;20456;-79
2022/03/20 08:46:24;;;;;;;19.30;14.93;;;12.80;44.70;;;-142.21;59.53;112049.66;4955541;28;20488;-76
2022/03/20 08:49:03;;;;;;;19.20;14.80;;;13.00;45.30;;;-142.21;59.51;112049.66;4956750;28;20531;-77
2022/03/20 08:52:13;;;;;;;18.33;15.57;;;13.00;44.80;;;-142.21;59.23;112049.66;4955971;29;20803;-76
2022/03/20 08:54:42;;;;;;;18.57;14.10;;;13.10;45.20;;;-142.21;61.92;112049.66;4940034;28;20449;-75
2022/03/20 08:57:25;;;;;;;21.30;14.47;;;13.20;45.30;;;-142.21;61.95;112049.66;4956406;29;21222;-76
2022/03/20 09:03:36;;;;;;;19.43;14.23;;;13.50;44.70;;;-142.21;60.83;112049.66;4889823;29;20467;-76
2022/03/20 09:06:03;;;;;;;19.50;14.60;;;13.70;45.10;;;-142.21;60.30;112049.66;4937718;29;20506;-76
2022/03/20 09:08:31;;;;;;;19.77;14.50;;;13.90;45.00;;;-142.21;60.60;112049.66;4955916;28;20558;-76
2022/03/20 09:10:59;;;;;;;22.00;14.70;;;14.10;45.00;;;-142.21;58.52;112049.66;4955890;28;20512;-76
2022/03/20 09:13:27;;;;;;;19.63;14.50;;;14.30;44.10;;;-142.21;57.23;112049.66;4956037;28;20492;-75
2022/03/20 09:21:20;;;;;;;18.63;14.10;;;15.00;43.70;;;-142.21;55.08;112049.66;4952484;29;20955;-74
2022/03/20 09:23:55;;;;;;;20.03;15.03;;;15.10;43.10;;;-142.21;54.24;112049.66;4950888;28;20517;-77
2022/03/20 09:26:57;;;;;;;21.37;15.97;;;15.20;42.70;;;-142.21;54.22;112049.66;4955161;29;20483;-75
2022/03/20 09:29:26;;;;;;;19.37;15.13;;;15.30;42.00;;;-142.21;53.04;112049.66;4950320;29;20464;-75
2022/03/20 09:31:53;;;;;;;18.47;14.70;;;15.30;42.10;;;-142.21;53.92;112049.66;4955075;28;20453;-75
2022/03/20 09:34:20;;;;;;;21.23;14.97;;;15.30;42.30;;;-142.21;54.17;112049.66;4955474;29;20544;-77
2022/03/20 09:36:48;;;;;;;20.43;15.90;;;15.40;42.50;;;-142.21;54.87;112049.66;4955299;28;20489;-77
2022/03/20 09:39:15;;;;;;;21.70;15.27;;;15.40;42.70;;;-142.21;54.91;112049.66;4955676;28;20457;-75
2022/03/20 09:41:45;;;;;;;18.83;15.37;;;15.30;42.30;;;-142.21;54.68;112049.66;4954728;28;20551;-75
2022/03/20 09:44:15;;;;;;;18.33;14.43;;;15.20;42.60;;;-142.21;55.48;112049.66;4956016;28;20818;-75
2022/03/20 09:46:45;;;;;;;19.43;14.90;;;15.10;42.70;;;-142.21;54.42;112049.66;4954781;28;20816;-79
2022/03/20 09:49:16;;;;;;;21.20;16.07;;;15.00;42.20;;;-142.21;53.03;112049.66;4955804;29;20453;-76
2022/03/20 09:51:44;;;;;;;20.97;15.70;;;15.00;42.20;;;-142.21;54.99;112049.66;4953196;29;20448;-75
2022/03/20 09:54:13;;;;;;;18.17;14.43;;;14.90;42.90;;;-142.21;55.86;112049.66;4953428;28;20433;-75
2022/03/20 09:56:50;;;;;;;17.73;14.37;;;15.00;42.90;;;-142.21;55.08;112049.66;4955143;29;20457;-80
2022/03/20 09:59:19;;;;;;;18.97;15.00;;;15.00;42.90;;;-142.21;54.55;112049.66;4955564;29;20476;-80
2022/03/20 10:01:46;;;;;;;30.30;15.27;;;15.00;42.60;;;-142.21;53.96;112049.66;4954987;28;20437;-75
2022/03/20 10:04:16;;;;;;;19.70;16.03;;;15.00;42.40;;;-142.21;54.47;112049.66;4955327;28;20516;-76
2022/03/20 10:06:44;;;;;;;19.63;15.33;;;15.00;42.70;;;-142.21;54.57;112049.66;4955101;29;20790;-77
2022/03/20 10:16:43;;;;;;;20.53;14.87;;;15.00;43.10;;;-142.21;56.40;112049.66;4878782;29;20491;-76
2022/03/20 10:19:50;;;;;;;19.10;15.17;;;15.00;43.30;;;-142.21;60.93;112049.66;4904264;29;20459;-76
2022/03/20 10:22:42;;;;;;;19.73;15.80;;;15.10;43.30;;;-142.21;54.53;112049.66;4912660;29;20537;-77
2022/03/20 10:25:12;;;;;;;18.83;15.50;;;15.20;42.50;;;-142.21;56.77;112049.66;4910887;29;20490;-76
2022/03/20 10:27:54;;;;;;;19.47;15.87;;;15.30;42.70;;;-142.21;55.33;112049.66;4916643;29;20541;-80
2022/03/20 10:30:42;;;;;;;20.63;16.03;;;15.20;42.60;;;-142.21;55.00;112049.66;4914343;29;20462;-76
2022/03/20 10:37:06;;;;;;;18.93;14.77;;;15.40;43.20;;;-142.21;56.64;112049.66;4774739;30;20468;-78
2022/03/20 10:40:39;;;;;;;19.53;15.13;;;15.40;42.40;;;-142.21;59.19;112049.66;4785381;30;20926;-75
2022/03/20 10:43:16;;;;;;;18.23;14.37;;;15.40;43.10;;;-142.21;58.91;112049.66;4731642;30;20467;-75
2022/03/20 10:46:02;;;;;;;18.30;14.33;;;15.40;42.90;;;-142.21;58.28;112049.66;4734709;30;20502;-76
2022/03/20 10:48:42;;;;;;;20.20;15.33;;;15.50;42.90;;;-142.21;58.44;112049.66;4745740;30;20501;-78
2022/03/20 10:51:10;;;;;;;21.20;16.10;;;15.50;42.90;;;-142.21;60.21;112049.66;4744323;30;20470;-77
2022/03/20 10:54:00;;;;;;;17.93;13.47;;;15.40;42.50;;;-142.21;60.80;112049.66;4757621;29;20513;-78
2022/03/20 10:56:27;;;;;;;17.63;14.40;;;15.50;43.10;;;-142.21;56.94;112049.66;4802702;29;20464;-74
2022/03/20 10:58:54;;;;;;;19.53;14.97;;;15.70;42.70;;;-142.21;59.51;112049.66;4802696;29;20495;-76
2022/03/20 11:01:36;;;;;;;19.17;14.80;;;15.80;42.90;;;-142.21;59.44;112049.66;4802144;29;20467;-77
2022/03/20 11:04:06;;;;;;;19.20;14.90;;;15.90;43.10;;;-142.21;60.06;112049.66;4798694;29;20536;-79
2022/03/20 11:06:33;;;;;;;20.23;15.40;;;16.00;42.90;;;-142.21;61.40;112049.66;4802490;29;20534;-79
2022/03/20 11:09:04;;;;;;;21.33;14.63;;;16.10;43.30;;;-142.21;61.12;112049.66;4803357;29;20979;-74
2022/03/20 11:11:35;;;;;;;19.33;15.43;;;16.20;43.10;;;-142.21;60.32;112049.66;4803442;29;20452;-75
2022/03/20 11:14:05;;;;;;;18.27;15.07;;;16.50;42.90;;;-142.21;59.33;112049.66;4897367;29;20587;-75
2022/03/20 11:16:37;;;;;;;18.80;14.47;;;16.70;42.80;;;-142.21;60.55;112049.66;4935955;29;20561;-76
2022/03/20 11:19:10;;;;;;;20.07;15.27;;;16.80;42.80;;;-142.21;64.37;112049.66;4935771;29;20438;-77
2022/03/20 11:21:41;;;;;;;17.60;13.70;;;17.10;42.60;;;-142.21;58.35;112049.66;4935319;29;20971;-78
2022/03/20 11:24:13;;;;;;;20.07;15.93;;;17.70;41.90;;;-142.21;55.68;112049.66;4943908;29;20473;-79
2022/03/20 11:26:45;;;;;;;16.57;14.27;;;18.60;41.90;;;-142.21;52.65;112049.66;4954818;29;20476;-78
2022/03/20 11:29:15;;;;;;;17.10;14.27;;;19.30;41.30;;;-142.21;53.04;112049.66;4953154;29;20201;-78
2022/03/20 11:31:43;;;;;;;17.40;14.13;;;19.60;40.20;;;-142.21;55.65;112049.66;4953560;29;20548;-79
2022/03/20 11:34:12;;;;;;;17.20;13.47;;;19.80;40.20;;;-142.21;55.21;112049.66;4953906;29;20229;-78
2022/03/20 11:37:06;;;;;;;18.97;14.83;;;20.00;39.90;;;-142.21;54.56;112049.66;4953023;29;20219;-77
2022/03/20 11:39:36;;;;;;;18.63;14.40;;;20.30;39.30;;;-142.21;52.37;112049.66;4952041;28;20212;-78
2022/03/20 11:42:24;;;;;;;17.17;14.80;;;20.60;39.50;;;-142.21;53.93;112049.66;4953941;29;20208;-79
2022/03/20 11:45:14;;;;;;;16.10;14.07;;;20.60;38.90;;;-142.21;51.73;112049.66;4953873;29;20198;-77
2022/03/20 11:47:43;;;;;;;17.57;13.53;;;20.40;38.90;;;-142.21;55.85;112049.66;4944703;29;20213;-77
2022/03/20 11:50:17;;;;;;;17.33;13.07;;;20.30;39.20;;;-142.21;54.51;112049.66;4953455;28;20193;-79
2022/03/20 11:53:00;;;;;;;16.77;13.70;;;20.20;39.80;;;-142.21;55.55;112049.66;4949313;29;20231;-79
2022/03/20 11:55:36;;;;;;;16.43;13.17;;;20.00;39.10;;;-142.21;55.05;112049.66;4941685;28;20280;-78
2022/03/20 11:58:12;;;;;;;16.07;12.27;;;20.10;39.80;;;-142.21;57.08;112049.66;4953325;29;20276;-76
2022/03/20 12:00:43;;;;;;;17.83;13.00;;;20.50;40.00;;;-142.21;55.85;112049.66;4952682;29;20209;-77
2022/03/20 12:04:09;;;;;;;16.80;12.90;;;21.10;39.90;;;-142.21;60.75;112049.66;4950138;29;20205;-78
2022/03/20 12:07:19;;;;;;;14.97;12.10;;;22.40;38.00;;;-142.21;61.74;112049.66;4934883;29;20324;-78
2022/03/20 12:10:10;;;;;;;13.47;12.07;;;23.80;37.00;;;-142.21;59.17;112049.66;4953805;29;20203;-77
2022/03/20 12:13:09;;;;;;;15.00;12.73;;;25.20;35.40;;;-142.21;57.82;112049.66;4949813;29;20228;-77
2022/03/20 12:15:45;;;;;;;15.33;11.73;;;26.10;33.60;;;-142.21;61.08;112049.66;4953264;29;20226;-77
2022/03/20 12:18:13;;;;;;;14.77;11.97;;;26.70;33.40;;;-142.21;60.93;112049.66;4949107;28;20206;-77
2022/03/20 12:21:02;;;;;;;12.10;10.87;;;27.60;33.90;;;-142.21;59.55;112049.66;4957053;29;20716;-75
2022/03/20 12:23:44;;;;;;;11.97;10.47;;;28.30;30.10;;;-142.21;52.59;112049.66;4956644;28;20299;-76
2022/03/20 12:26:42;;;;;;;14.37;11.20;;;28.80;30.10;;;-142.21;57.90;112049.66;4956458;29;20272;-74
2022/03/20 12:29:35;;;;;;;10.97;9.73;;;29.20;30.00;;;-142.21;57.36;112049.66;4960948;29;20197;-77
2022/03/20 12:32:11;;;;;;;10.40;9.30;;;29.90;28.70;;;-142.21;53.38;112049.66;4965517;29;20237;-77
2022/03/20 12:34:39;;;;;;;12.40;9.30;;;30.00;29.10;;;-142.21;56.45;112049.66;4938276;29;20221;-77
2022/03/20 12:37:37;;;;;;;12.00;9.13;;;30.40;29.20;;;-142.21;53.62;112049.66;4955713;28;20201;-75
2022/03/20 12:40:18;;;;;;;10.80;9.10;;;30.80;27.60;;;-142.21;51.52;112049.66;4943737;29;20207;-73
2022/03/20 12:42:58;;;;;;;9.63;8.47;;;30.50;27.40;;;-142.21;53.46;112049.66;4956351;29;20202;-78
2022/03/20 12:45:29;;;;;;;10.37;8.40;;;30.80;28.10;;;-142.21;51.20;112049.66;4954274;29;20305;-76
2022/03/20 12:48:00;;;;;;;9.80;8.23;;;31.20;28.00;;;-142.21;48.02;112049.66;4950616;29;20199;-74
2022/03/20 12:50:32;;;;;;;9.13;7.50;;;31.30;27.20;;;-142.21;48.61;112049.66;4948142;28;20503;-79
2022/03/20 12:53:07;;;;;;;10.63;8.10;;;31.50;27.60;;;-142.21;46.69;112049.66;4952725;29;20210;-76
2022/03/20 12:55:37;;;;;;;10.27;7.50;;;31.30;26.10;;;-142.21;45.71;112049.66;4956000;28;20263;-79
2022/03/20 12:58:06;;;;;;;10.13;7.17;;;30.80;26.40;;;-142.21;45.20;112049.66;4954608;29;20232;-76
2022/03/20 13:00:37;;;;;;;8.73;6.90;;;30.70;26.50;;;-142.21;46.76;112049.66;4950259;28;20212;-78
2022/03/20 13:03:08;;;;;;;7.80;6.87;;;30.40;26.20;;;-142.21;44.71;112049.66;4955368;29;20208;-79
2022/03/20 13:05:38;;;;;;;8.30;7.33;;;30.20;26.70;;;-142.21;45.11;112049.66;4956739;29;20217;-78
2022/03/20 13:08:07;;;;;;;12.57;7.90;;;29.90;26.40;;;-142.21;45.93;112049.66;4956340;29;20667;-75
2022/03/20 13:10:37;;;;;;;8.30;7.47;;;29.30;27.00;;;-142.21;48.67;112049.66;4954680;28;20208;-79
2022/03/20 13:13:07;;;;;;;8.67;7.20;;;28.80;27.50;;;-142.21;50.79;112049.66;4939567;29;20218;-78
2022/03/20 13:15:39;;;;;;;9.67;7.50;;;28.70;27.90;;;-142.21;49.43;112049.66;4956458;29;20191;-78
2022/03/20 13:18:10;;;;;;;7.73;6.67;;;28.60;28.30;;;-142.21;46.71;112049.66;4956521;29;20286;-78
2022/03/20 13:20:40;;;;;;;7.97;6.90;;;28.00;28.30;;;-142.21;48.26;112049.66;4956284;29;20293;-78
2022/03/20 13:23:09;;;;;;;7.97;6.77;;;27.60;29.00;;;-142.21;46.43;112049.66;4955788;28;20260;-78
2022/03/20 13:25:41;;;;;;;8.50;6.93;;;27.50;29.20;;;-142.21;48.07;112049.66;4955334;29;20229;-78
2022/03/20 13:28:09;;;;;;;8.17;7.33;;;27.30;29.60;;;-142.21;46.41;112049.66;4955334;28;20221;-80
2022/03/20 13:30:42;;;;;;;8.47;6.90;;;27.00;29.50;;;-142.21;47.60;112049.66;4938361;29;20805;-78
2022/03/20 13:33:09;;;;;;;8.80;7.40;;;26.80;29.50;;;-142.21;46.65;112049.66;4939357;29;20189;-77
2022/03/20 13:35:36;;;;;;;12.20;7.23;;;26.60;29.70;;;-142.21;48.06;112049.66;4955230;29;20209;-78
2022/03/20 13:38:05;;;;;;;10.27;7.20;;;26.30;30.00;;;-142.21;46.86;112049.66;4956065;28;20256;-77
2022/03/20 13:40:34;;;;;;;9.63;6.77;;;26.10;30.20;;;-142.21;49.05;112049.66;4955513;29;20212;-76
2022/03/20 13:43:02;;;;;;;8.30;7.20;;;26.10;30.40;;;-142.21;48.67;112049.66;4955536;29;20213;-78
2022/03/20 13:45:38;;;;;;;9.97;7.30;;;26.00;30.20;;;-142.21;46.85;112049.66;4938102;29;20209;-77
2022/03/20 13:48:06;;;;;;;9.60;7.03;;;25.90;30.60;;;-142.21;48.50;112049.66;4939174;29;20288;-77
2022/03/20 13:50:34;;;;;;;10.03;7.30;;;25.90;31.20;;;-142.21;48.47;112049.66;4955550;29;20244;-78
2022/03/20 13:53:01;;;;;;;9.40;6.70;;;25.90;30.70;;;-142.21;46.23;112049.66;4955234;28;20210;-74
2022/03/20 13:55:38;;;;;;;7.77;6.67;;;25.70;30.50;;;-142.21;41.48;112049.66;4955591;28;20291;-76
2022/03/20 13:58:06;;;;;;;12.00;7.27;;;25.40;29.80;;;-142.21;42.36;112049.66;4955403;29;20193;-76
2022/03/20 14:00:39;;;;;;;8.67;6.10;;;25.00;31.00;;;-142.21;45.94;112049.66;4955136;29;20256;-79
2022/03/20 14:03:09;;;;;;;7.07;6.00;;;25.10;32.20;;;-142.21;47.37;112049.66;4955790;29;20284;-78
2022/03/20 14:05:40;;;;;;;7.00;6.20;;;25.20;31.90;;;-142.21;49.77;112049.66;4954782;29;20260;-78
2022/03/20 14:08:11;;;;;;;9.03;6.57;;;25.30;31.70;;;-142.21;46.35;112049.66;4938795;29;20248;-78
2022/03/20 14:10:48;;;;;;;8.00;6.67;;;25.20;31.60;;;-142.21;45.43;112049.66;4954872;29;20201;-79
2022/03/20 14:13:23;;;;;;;9.27;6.63;;;24.90;31.30;;;-142.21;44.44;112049.66;4955588;29;20280;-78
2022/03/20 14:16:03;;;;;;;7.63;6.53;;;24.80;31.80;;;-142.21;44.39;112049.66;4955093;29;20620;-77
2022/03/20 14:18:31;;;;;;;8.60;6.40;;;24.40;32.10;;;-142.21;47.03;112049.66;4955204;29;20673;-78
2022/03/20 14:21:13;;;;;;;9.87;7.13;;;24.50;32.60;;;-142.21;44.56;112049.66;4954459;28;20222;-78
2022/03/20 14:23:57;;;;;;;7.90;6.27;;;24.20;31.50;;;-142.21;47.55;112049.66;4954789;28;20331;-78
2022/03/20 14:26:26;;;;;;;8.67;6.40;;;24.10;32.20;;;-142.21;45.95;112049.66;4955172;29;20217;-78
2022/03/20 14:29:07;;;;;;;7.37;6.47;;;24.20;33.00;;;-142.21;46.72;112049.66;4954320;28;20212;-78
2022/03/20 14:40:13;;;;;;;11.47;7.33;;;23.80;33.10;;;-142.21;43.11;112049.66;4953369;28;20246;-78
2022/03/20 14:42:44;;;;;;;9.40;6.30;;;23.70;33.10;;;-142.21;46.13;112049.66;4937967;29;20207;-79
2022/03/20 14:45:15;;;;;;;9.60;6.17;;;23.80;33.30;;;-142.21;44.01;112049.66;4954836;29;20544;-76
2022/03/20 14:47:46;;;;;;;8.43;6.47;;;23.60;32.70;;;-142.21;44.01;112049.66;4954883;29;20241;-76
2022/03/20 14:50:14;;;;;;;11.33;6.90;;;23.50;32.70;;;-142.21;43.41;112049.66;4954688;29;20225;-75
2022/03/20 14:52:42;;;;;;;10.23;6.53;;;23.40;32.70;;;-142.21;43.21;112049.66;4954468;28;20284;-74
2022/03/20 14:55:11;;;;;;;9.40;6.20;;;23.40;32.60;;;-142.21;43.99;112049.66;4954508;28;20218;-76
2022/03/20 14:57:38;;;;;;;10.93;6.50;;;23.50;33.50;;;-142.21;42.11;112049.66;4954821;28;20350;-77
2022/03/20 15:00:07;;;;;;;9.27;6.77;;;23.40;32.70;;;-142.21;44.86;112049.66;4954115;28;20254;-76
2022/03/20 15:02:35;;;;;;;11.13;6.40;;;23.30;32.90;;;-142.21;42.47;112049.66;4954970;28;20682;-76
2022/03/20 15:05:04;;;;;;;6.83;6.13;;;23.30;32.50;;;-142.21;43.58;112049.66;4954262;28;20205;-78
2022/03/20 15:07:32;;;;;;;9.63;6.60;;;23.30;33.00;;;-142.21;44.07;112049.66;4953480;28;20358;-78
2022/03/20 15:12:44;;;;;;;8.57;6.37;;;23.20;32.70;;;-142.21;42.66;112049.66;4954241;29;20204;-79
2022/03/20 15:15:12;;;;;;;9.00;6.67;;;23.10;32.90;;;-142.21;44.97;112049.66;4954388;28;20254;-76
2022/03/20 15:17:39;;;;;;;7.13;6.27;;;23.10;33.30;;;-142.21;44.63;112049.66;4954288;28;20211;-78
2022/03/20 15:20:10;;;;;;;9.47;6.60;;;23.00;33.10;;;-142.21;43.56;112049.66;4954549;28;20554;-75
2022/03/20 15:22:37;;;;;;;8.03;6.30;;;22.80;33.00;;;-142.21;41.74;112049.66;4936803;29;20249;-78
2022/03/20 15:25:09;;;;;;;10.57;6.30;;;22.70;32.90;;;-142.21;43.14;112049.66;4954159;29;20224;-79
2022/03/20 15:27:37;;;;;;;12.67;6.87;;;22.50;33.50;;;-142.21;43.23;112049.66;4953968;29;20304;-77
2022/03/20 15:30:05;;;;;;;7.50;5.77;;;22.40;33.10;;;-142.21;44.26;112049.66;4954648;29;20300;-77
2022/03/20 15:32:32;;;;;;;6.73;5.87;;;22.30;33.40;;;-142.21;45.11;112049.66;4954074;29;20686;-77
2022/03/20 15:35:01;;;;;;;9.73;6.87;;;22.30;33.50;;;-142.21;44.00;112049.66;4954326;28;20205;-75
2022/03/20 15:37:30;;;;;;;10.60;6.67;;;22.30;33.50;;;-142.21;43.13;112049.66;4953990;28;20264;-76
2022/03/20 15:39:57;;;;;;;9.07;6.87;;;22.10;33.70;;;-142.21;45.16;112049.66;4953796;28;20578;-76
2022/03/20 15:42:25;;;;;;;9.70;7.77;;;22.00;34.30;;;-142.21;43.97;112049.66;4954334;29;20213;-77
2022/03/20 15:44:52;;;;;;;9.73;7.57;;;21.90;33.60;;;-142.21;42.94;112049.66;4954450;28;20216;-78
2022/03/20 15:47:20;;;;;;;10.70;8.03;;;21.80;34.00;;;-142.21;43.93;112049.66;4954417;28;20233;-77
2022/03/20 15:49:48;;;;;;;10.87;7.57;;;21.80;34.30;;;-142.21;43.90;112049.66;4953497;28;20209;-78
2022/03/20 15:52:15;;;;;;;10.63;8.53;;;21.70;34.20;;;-142.21;43.67;112049.66;4953970;28;20674;-76
2022/03/20 15:54:44;;;;;;;10.53;8.30;;;21.70;34.20;;;-142.21;43.99;112049.66;4958025;28;20259;-79
2022/03/20 15:57:11;;;;;;;12.27;8.20;;;21.50;34.00;;;-142.21;43.03;112049.66;4958296;28;20251;-78
2022/03/20 15:59:41;;;;;;;11.20;8.57;;;21.50;34.30;;;-142.21;45.44;112049.66;4956869;29;20264;-77
2022/03/20 16:02:09;;;;;;;11.40;8.47;;;21.50;34.60;;;-142.21;41.77;112049.66;4958566;28;20201;-77
2022/03/20 16:04:37;;;;;;;15.27;8.93;;;21.40;34.00;;;-142.21;41.44;112049.66;4957879;28;20201;-78
2022/03/20 16:07:05;;;;;;;13.40;9.30;;;21.30;34.40;;;-142.21;42.82;112049.66;4960580;28;20260;-76
2022/03/20 16:09:32;;;;;;;12.87;8.37;;;21.40;34.60;;;-142.21;43.45;112049.66;4957033;28;20212;-79
2022/03/20 16:12:01;;;;;;;13.83;9.17;;;21.30;34.50;;;-142.21;43.00;112049.66;4957031;28;20201;-79
2022/03/20 16:14:28;;;;;;;9.50;7.83;;;21.40;34.90;;;-142.21;42.52;112049.66;4957707;28;20240;-78
2022/03/20 16:16:56;;;;;;;13.67;8.13;;;21.30;34.30;;;-142.21;43.39;112049.66;4956808;28;20284;-77
2022/03/20 16:19:23;;;;;;;11.80;8.27;;;21.30;34.80;;;-142.21;44.85;112049.66;4965122;29;20240;-79
2022/03/20 16:21:51;;;;;;;10.57;8.20;;;21.30;35.10;;;-142.21;43.36;112049.66;4965699;28;20240;-77
2022/03/20 16:29:49;;;;;;;11.67;9.30;;;21.20;34.50;;;-142.21;42.37;112049.66;4965120;29;20196;-78
2022/03/20 16:32:16;;;;;;;12.10;8.87;;;21.10;34.50;;;-142.21;46.42;112049.66;4963239;29;20268;-76
2022/03/20 16:35:25;;;;;;;13.63;9.23;;;21.20;35.20;;;-142.21;43.87;112049.66;4966581;28;20209;-77
2022/03/20 16:37:53;;;;;;;14.53;8.37;;;21.20;34.80;;;-142.21;43.60;112049.66;4946116;28;20256;-78
2022/03/20 16:40:21;;;;;;;12.30;8.07;;;21.20;35.40;;;-142.21;43.73;112049.66;4956950;28;20213;-77
2022/03/20 16:42:49;;;;;;;13.17;9.20;;;21.20;35.40;;;-142.21;45.17;112049.66;4956052;29;20292;-77
2022/03/20 16:45:17;;;;;;;11.27;8.23;;;21.20;35.00;;;-142.21;44.40;112049.66;4956292;29;20206;-76
2022/03/20 16:47:44;;;;;;;11.33;8.77;;;21.20;35.30;;;-142.21;44.56;112049.66;4956751;28;20316;-76
2022/03/20 16:50:13;;;;;;;13.10;9.07;;;21.20;34.80;;;-142.21;43.02;112049.66;4956276;28;20276;-77
2022/03/20 16:52:41;;;;;;;12.33;8.23;;;21.20;34.90;;;-142.21;45.47;112049.66;4956295;29;20248;-77
2022/03/20 16:55:09;;;;;;;12.23;8.63;;;21.10;35.20;;;-142.21;44.32;112049.66;4956399;29;20312;-79
2022/03/20 16:57:37;;;;;;;12.33;8.90;;;21.00;34.90;;;-142.21;44.03;112049.66;4956940;28;20677;-75
2022/03/20 17:00:10;;;;;;;12.97;9.03;;;20.90;35.00;;;-142.21;43.71;112049.66;4957308;28;20280;-78
2022/03/20 17:02:37;;;;;;;14.20;9.13;;;20.90;35.30;;;-142.21;45.34;112049.66;4957185;28;20268;-77
2022/03/20 17:05:05;;;;;;;10.97;8.23;;;20.90;35.20;;;-142.21;45.62;112049.66;4955898;28;20453;-75
2022/03/20 17:07:33;;;;;;;13.40;8.80;;;20.80;35.50;;;-142.21;45.58;112049.66;4956381;29;20316;-78
2022/03/20 17:10:02;;;;;;;13.90;8.90;;;20.80;35.20;;;-142.21;44.01;112049.66;4957014;28;20299;-75
2022/03/20 17:12:30;;;;;;;9.27;7.77;;;20.60;35.10;;;-142.21;43.19;112049.66;4938525;29;20241;-76